Antalya, Turkey

19:23 +03 dnia 27-marzec-2017 (GMT +0300)
Antalya | | Change Station

Wysokość 174 ft 36.87 °N, 30.73 °E | Updated 33 minutes ago

Scattered Clouds
obłoki zanikające
61 ° F
Odczuwalna 61 ° F
Płn.
6
Wiatr zmienny Wiatr od PdPdZd

Dziś
Wysoka -- | Niska -- ° F
--% Prawdop. opadów
Wczoraj
Wysoka -- | Niska -- ° F
Precip. -- cali
Ciśnienie 29.95 cali
Widzialność 6.2 mil
chmury obłoki zanikające 3000 ft
Punkt rosy 52 ° F
Wilgotność 72%
Opady deszczu 0.00 cali
grubość pokrywy śnieżnej Niedostępne.
6:50 AM 7:15 PM
Zmniejszający się sierp Księżyca, 0% visible
METAR LTAI 271550Z 20005KT 9999 SCT030 16/11 Q1014 NOSIG RMK RWY18C 17005KT 120V200 RWY36R 16005KT RWY18L 17004KT 140V200
Ciśnienie 29.95 cali
Widzialność 6.2 mil
chmury obłoki zanikające 3000 ft
Punkt rosy 52 ° F
Wilgotność 72%
Opady deszczu 0.00 cali
grubość pokrywy śnieżnej Niedostępne.
6:50 AM 7:15 PM
Zmniejszający się sierp Księżyca, 0% visible
METAR LTAI 271550Z 20005KT 9999 SCT030 16/11 Q1014 NOSIG RMK RWY18C 17005KT 120V200 RWY36R 16005KT RWY18L 17004KT 140V200

Get Severe Weather Alerts

Thanks for signing up!

Be on the lookout for a verification email in your inbox.

You'll start receiving the daily forecast at 8 AM.

×

10-Day Weather Forecast

×

Almanac

Astronomia

Mar. 27, 2017 Wschód Zachów
Aktualny czas
Zmierzch cywilny
Zmierzch żeglarski
świt/zmierzch astronomiczny
Księżyc
całkowite oświetlenie
Długość dnia
Tomorrow will be .
, % of the Moon is Illuminated

Dzisiejsze ekstrema

Country Highs Country Lows

Community

WunderPhotos

Upload Photos

1,962,540 zdjęcia zostały przesłane!

WunderBlog® & News

Nearby

Jakość powietrza

  Jakość powietrza czynnik AQ Zanieczyszczenie
Not available.

Głębokość pokrywy śnieżnej

Station Depth n.p.m.

Aktywność sejsmiczna

Miejscowość Distance Mag. Time & Date
Minimum magnitude displayed is 2.5.

Aktywność sejsmiczna

Miejscowość Distance Mag. Time & Date
Minimum magnitude displayed is 2.5.

Temperatury wody na wybrzeżu

Miejsce Temperatura

Stations

Najbliższa stacja pogodowa

Lokalizacja stacji Temp. czynnik chłodzący wiatru Punkt rosy Wilgotność Wiatr Precip. Wysokość Uaktualniono Typ